AAL9750 KDAB-KEYW
Flight info
| Callsign | AAL9750 |
|---|---|
| Flight time | 0h 50m |
| Altitude | 24000 |
| Route | ILIND MALET T208 DIMBY DIDDY SWAGS GIGIH |
| Aircraft | A319/M-SDE3FGHIRWY/LB1 |
Departure
| Time | 2026-04-21 01:05 |
|---|---|
| Airport | Daytona Beach International Airport (KDAB) |
Arrival
| Time | 2026-04-21 01:55 |
|---|---|
| Airport | Key West International Airport (KEYW) |
| Time | Latitude | Longitude | Altitude | Speed | Heading |
|---|---|---|---|---|---|
| 2026-04-21 00:43 | 29.18404 | -81.05785 | 38 ft | 0 kts | 359° |
| 2026-04-21 00:59 | 29.18406 | -81.05784 | 25 ft | 1 kts | 14° |
| 2026-04-21 00:59 | 29.18405 | -81.05777 | 38 ft | 1 kts | 83° |
| 2026-04-21 00:59 | 29.18394 | -81.05751 | 21 ft | 7 kts | 119° |
| 2026-04-21 00:59 | 29.18394 | -81.05688 | 37 ft | 10 kts | 66° |
| 2026-04-21 01:00 | 29.18405 | -81.05601 | 37 ft | 12 kts | 127° |
| 2026-04-21 01:00 | 29.18328 | -81.05559 | 40 ft | 11 kts | 166° |
| 2026-04-21 01:00 | 29.18281 | -81.05622 | 40 ft | 14 kts | 245° |
| 2026-04-21 01:00 | 29.18232 | -81.05744 | 37 ft | 19 kts | 245° |
| 2026-04-21 01:01 | 29.18173 | -81.05892 | 38 ft | 21 kts | 245° |
| 2026-04-21 01:01 | 29.18109 | -81.06047 | 40 ft | 23 kts | 245° |
| 2026-04-21 01:01 | 29.18037 | -81.06223 | 40 ft | 25 kts | 245° |
| 2026-04-21 01:01 | 29.17972 | -81.06384 | 38 ft | 25 kts | 245° |
| 2026-04-21 01:02 | 29.17897 | -81.06572 | 37 ft | 27 kts | 245° |
| 2026-04-21 01:02 | 29.17820 | -81.06760 | 35 ft | 26 kts | 245° |
| 2026-04-21 01:02 | 29.17741 | -81.06955 | 34 ft | 28 kts | 245° |
| 2026-04-21 01:02 | 29.17658 | -81.07161 | 37 ft | 29 kts | 245° |
| 2026-04-21 01:03 | 29.17584 | -81.07339 | 39 ft | 23 kts | 243° |
| 2026-04-21 01:03 | 29.17512 | -81.07490 | 38 ft | 16 kts | 241° |
| 2026-04-21 01:03 | 29.17463 | -81.07590 | 40 ft | 15 kts | 240° |
| 2026-04-21 01:03 | 29.17408 | -81.07659 | 41 ft | 12 kts | 198° |
| 2026-04-21 01:04 | 29.17338 | -81.07639 | 39 ft | 10 kts | 151° |
| 2026-04-21 01:04 | 29.17341 | -81.07565 | 39 ft | 11 kts | 65° |
| 2026-04-21 01:04 | 29.17398 | -81.07425 | 36 ft | 45 kts | 64° |
| 2026-04-21 01:04 | 29.17678 | -81.06739 | 35 ft | 141 kts | 65° |
| 2026-04-21 01:05 | 29.18124 | -81.05650 | 851 ft | 148 kts | 60° |
| 2026-04-21 01:05 | 29.18542 | -81.04611 | 2010 ft | 145 kts | 63° |
| 2026-04-21 01:05 | 29.18997 | -81.03471 | 2545 ft | 170 kts | 63° |
| 2026-04-21 01:05 | 29.19514 | -81.02156 | 3062 ft | 197 kts | 69° |
| 2026-04-21 01:06 | 29.19725 | -81.00523 | 3771 ft | 223 kts | 90° |
| 2026-04-21 01:06 | 29.19315 | -80.98909 | 3967 ft | 255 kts | 116° |
| 2026-04-21 01:06 | 29.18068 | -80.97398 | 4024 ft | 269 kts | 144° |
| 2026-04-21 01:06 | 29.16395 | -80.96403 | 4025 ft | 272 kts | 152° |
| 2026-04-21 01:07 | 29.14617 | -80.95622 | 4104 ft | 281 kts | 166° |
| 2026-04-21 01:07 | 29.12648 | -80.95258 | 5092 ft | 287 kts | 169° |
| 2026-04-21 01:07 | 29.10670 | -80.94876 | 6313 ft | 289 kts | 170° |
| 2026-04-21 01:07 | 29.08672 | -80.94477 | 7393 ft | 294 kts | 170° |
| 2026-04-21 01:08 | 29.06641 | -80.94066 | 8465 ft | 299 kts | 171° |
| 2026-04-21 01:08 | 29.04580 | -80.93652 | 9525 ft | 304 kts | 171° |
| 2026-04-21 01:08 | 29.02725 | -80.93283 | 10349 ft | 313 kts | 171° |
| 2026-04-21 01:08 | 29.00493 | -80.92845 | 10803 ft | 338 kts | 172° |
| 2026-04-21 01:09 | 28.98088 | -80.92377 | 11197 ft | 362 kts | 172° |
| 2026-04-21 01:09 | 28.95551 | -80.91886 | 11809 ft | 376 kts | 172° |
| 2026-04-21 01:09 | 28.92942 | -80.91381 | 12625 ft | 383 kts | 172° |
| 2026-04-21 01:09 | 28.90338 | -80.90875 | 13461 ft | 389 kts | 173° |
| 2026-04-21 01:10 | 28.87646 | -80.90350 | 14282 ft | 394 kts | 173° |
| 2026-04-21 01:10 | 28.85249 | -80.89884 | 14952 ft | 399 kts | 173° |
| 2026-04-21 01:10 | 28.82496 | -80.89349 | 15704 ft | 404 kts | 174° |
| 2026-04-21 01:10 | 28.79704 | -80.88810 | 16472 ft | 408 kts | 174° |
| 2026-04-21 01:11 | 28.76890 | -80.88269 | 17238 ft | 413 kts | 175° |
| 2026-04-21 01:11 | 28.74044 | -80.87722 | 18029 ft | 417 kts | 175° |
| 2026-04-21 01:11 | 28.71163 | -80.87166 | 18772 ft | 422 kts | 175° |
| 2026-04-21 01:11 | 28.68276 | -80.86417 | 19444 ft | 432 kts | 167° |
| 2026-04-21 01:12 | 28.65749 | -80.85412 | 20037 ft | 437 kts | 165° |
| 2026-04-21 01:12 | 28.62856 | -80.84313 | 20677 ft | 438 kts | 171° |
| 2026-04-21 01:12 | 28.59859 | -80.83923 | 21281 ft | 431 kts | 186° |
| 2026-04-21 01:12 | 28.56898 | -80.84004 | 21891 ft | 433 kts | 188° |
| 2026-04-21 01:13 | 28.53874 | -80.84108 | 22501 ft | 437 kts | 188° |
| 2026-04-21 01:13 | 28.50820 | -80.84221 | 23082 ft | 441 kts | 188° |
| 2026-04-21 01:13 | 28.47739 | -80.84334 | 23652 ft | 444 kts | 188° |
| 2026-04-21 01:13 | 28.44999 | -80.84433 | 24036 ft | 447 kts | 188° |
| 2026-04-21 01:14 | 28.41890 | -80.84541 | 24185 ft | 447 kts | 188° |
| 2026-04-21 01:14 | 28.38741 | -80.84650 | 24233 ft | 459 kts | 188° |
| 2026-04-21 01:14 | 28.35511 | -80.84765 | 24232 ft | 469 kts | 188° |
| 2026-04-21 01:14 | 28.32229 | -80.84876 | 24226 ft | 472 kts | 188° |
| 2026-04-21 01:15 | 28.28944 | -80.84983 | 24204 ft | 473 kts | 188° |
| 2026-04-21 01:15 | 28.25650 | -80.85085 | 24202 ft | 474 kts | 188° |
| 2026-04-21 01:15 | 28.22736 | -80.85175 | 24203 ft | 474 kts | 188° |
| 2026-04-21 01:15 | 28.19442 | -80.85278 | 24218 ft | 474 kts | 188° |
| 2026-04-21 01:16 | 28.16138 | -80.85386 | 24219 ft | 474 kts | 188° |
| 2026-04-21 01:16 | 28.12844 | -80.85498 | 24216 ft | 474 kts | 188° |
| 2026-04-21 01:16 | 28.09546 | -80.85611 | 24217 ft | 474 kts | 188° |
| 2026-04-21 01:16 | 28.06254 | -80.85721 | 24213 ft | 474 kts | 188° |
| 2026-04-21 01:17 | 28.02958 | -80.85829 | 24209 ft | 474 kts | 188° |
| 2026-04-21 01:17 | 28.00032 | -80.85926 | 24206 ft | 473 kts | 188° |
| 2026-04-21 01:17 | 27.96741 | -80.86037 | 24205 ft | 473 kts | 188° |
| 2026-04-21 01:17 | 27.93458 | -80.86147 | 24201 ft | 472 kts | 188° |
| 2026-04-21 01:18 | 27.90169 | -80.86258 | 24196 ft | 472 kts | 188° |
| 2026-04-21 01:18 | 27.86886 | -80.86366 | 24192 ft | 472 kts | 187° |
| 2026-04-21 01:18 | 27.83615 | -80.86472 | 24192 ft | 471 kts | 187° |
| 2026-04-21 01:18 | 27.80338 | -80.86578 | 24187 ft | 471 kts | 187° |
| 2026-04-21 01:19 | 27.77570 | -80.86668 | 24185 ft | 470 kts | 187° |
| 2026-04-21 01:19 | 27.74175 | -80.86778 | 24186 ft | 470 kts | 187° |
| 2026-04-21 01:19 | 27.70907 | -80.86885 | 24183 ft | 469 kts | 187° |
| 2026-04-21 01:19 | 27.67642 | -80.86997 | 24184 ft | 469 kts | 188° |
| 2026-04-21 01:20 | 27.64387 | -80.87108 | 24184 ft | 468 kts | 188° |
| 2026-04-21 01:20 | 27.61131 | -80.87216 | 24185 ft | 468 kts | 187° |
| 2026-04-21 01:20 | 27.57878 | -80.87320 | 24192 ft | 467 kts | 187° |
| 2026-04-21 01:20 | 27.55065 | -80.87408 | 24194 ft | 467 kts | 187° |
| 2026-04-21 01:21 | 27.51760 | -80.87514 | 24190 ft | 466 kts | 188° |
| 2026-04-21 01:21 | 27.48523 | -80.87621 | 24191 ft | 465 kts | 188° |
| 2026-04-21 01:21 | 27.45492 | -80.87722 | 24193 ft | 465 kts | 188° |
| 2026-04-21 01:21 | 27.42262 | -80.87833 | 24190 ft | 464 kts | 188° |
| 2026-04-21 01:22 | 27.39110 | -80.87942 | 24192 ft | 464 kts | 188° |
| 2026-04-21 01:22 | 27.35893 | -80.88052 | 24190 ft | 463 kts | 188° |
| 2026-04-21 01:22 | 27.32919 | -80.88152 | 24189 ft | 463 kts | 188° |
| 2026-04-21 01:22 | 27.29855 | -80.88464 | 24187 ft | 456 kts | 195° |
| 2026-04-21 01:23 | 27.26956 | -80.89036 | 24186 ft | 455 kts | 196° |
| 2026-04-21 01:23 | 27.23840 | -80.89644 | 24187 ft | 455 kts | 195° |
| 2026-04-21 01:23 | 27.20717 | -80.90243 | 24184 ft | 455 kts | 195° |
| 2026-04-21 01:23 | 27.17691 | -80.90814 | 24182 ft | 454 kts | 195° |
| 2026-04-21 01:24 | 27.14584 | -80.91400 | 24177 ft | 454 kts | 195° |
| 2026-04-21 01:24 | 27.11646 | -80.91958 | 24174 ft | 454 kts | 195° |
| 2026-04-21 01:24 | 27.08708 | -80.92519 | 24169 ft | 454 kts | 195° |
| 2026-04-21 01:24 | 27.05601 | -80.93116 | 24167 ft | 454 kts | 195° |
| 2026-04-21 01:25 | 27.02494 | -80.93723 | 24163 ft | 453 kts | 195° |
| 2026-04-21 01:25 | 26.99385 | -80.94335 | 24158 ft | 453 kts | 195° |
| 2026-04-21 01:25 | 26.96281 | -80.94942 | 24158 ft | 453 kts | 195° |
| 2026-04-21 01:25 | 26.93176 | -80.95544 | 24152 ft | 453 kts | 195° |
| 2026-04-21 01:26 | 26.90136 | -80.96126 | 24150 ft | 453 kts | 195° |
| 2026-04-21 01:26 | 26.87361 | -80.96657 | 24148 ft | 453 kts | 195° |
| 2026-04-21 01:26 | 26.84255 | -80.97255 | 24147 ft | 453 kts | 195° |
| 2026-04-21 01:26 | 26.81151 | -80.97858 | 24143 ft | 453 kts | 195° |
| 2026-04-21 01:27 | 26.78052 | -80.98457 | 24142 ft | 453 kts | 195° |
| 2026-04-21 01:27 | 26.74941 | -80.99056 | 24143 ft | 453 kts | 195° |
| 2026-04-21 01:27 | 26.71841 | -80.99652 | 24140 ft | 453 kts | 195° |
| 2026-04-21 01:27 | 26.68726 | -81.00246 | 24140 ft | 453 kts | 195° |
| 2026-04-21 01:28 | 26.65978 | -81.00765 | 24135 ft | 453 kts | 195° |
| 2026-04-21 01:28 | 26.62873 | -81.01359 | 24134 ft | 453 kts | 195° |
| 2026-04-21 01:28 | 26.59759 | -81.01958 | 24135 ft | 453 kts | 195° |
| 2026-04-21 01:28 | 26.56652 | -81.02553 | 24135 ft | 453 kts | 195° |
| 2026-04-21 01:29 | 26.53544 | -81.03150 | 24137 ft | 453 kts | 195° |
| 2026-04-21 01:29 | 26.50438 | -81.03753 | 24134 ft | 453 kts | 195° |
| 2026-04-21 01:29 | 26.47371 | -81.04343 | 24128 ft | 453 kts | 194° |
| 2026-04-21 01:29 | 26.44637 | -81.04867 | 24129 ft | 454 kts | 194° |
| 2026-04-21 01:30 | 26.41525 | -81.05463 | 24129 ft | 454 kts | 194° |
| 2026-04-21 01:30 | 26.38409 | -81.06051 | 24131 ft | 454 kts | 194° |
| 2026-04-21 01:30 | 26.35295 | -81.06639 | 24128 ft | 454 kts | 194° |
| 2026-04-21 01:30 | 26.32181 | -81.07225 | 24133 ft | 454 kts | 194° |
| 2026-04-21 01:31 | 26.29073 | -81.07812 | 24132 ft | 454 kts | 194° |
| 2026-04-21 01:31 | 26.25956 | -81.08409 | 24131 ft | 454 kts | 194° |
| 2026-04-21 01:31 | 26.23206 | -81.08941 | 24129 ft | 454 kts | 194° |
| 2026-04-21 01:31 | 26.20092 | -81.09543 | 24127 ft | 453 kts | 196° |
| 2026-04-21 01:32 | 26.17082 | -81.10485 | 24123 ft | 447 kts | 205° |
| 2026-04-21 01:32 | 26.14263 | -81.11894 | 24126 ft | 444 kts | 211° |
| 2026-04-21 01:32 | 26.11501 | -81.13428 | 24125 ft | 444 kts | 211° |
| 2026-04-21 01:32 | 26.08771 | -81.14938 | 24126 ft | 444 kts | 211° |
| 2026-04-21 01:33 | 26.06005 | -81.16466 | 24123 ft | 444 kts | 211° |
| 2026-04-21 01:33 | 26.03556 | -81.17813 | 24124 ft | 444 kts | 211° |
| 2026-04-21 01:33 | 26.00782 | -81.19335 | 24122 ft | 444 kts | 211° |
| 2026-04-21 01:33 | 25.98016 | -81.20849 | 24121 ft | 444 kts | 211° |
| 2026-04-21 01:34 | 25.95237 | -81.22371 | 24125 ft | 444 kts | 211° |
| 2026-04-21 01:34 | 25.92467 | -81.23888 | 24124 ft | 444 kts | 211° |
| 2026-04-21 01:34 | 25.89731 | -81.25391 | 24121 ft | 444 kts | 211° |
| 2026-04-21 01:34 | 25.86962 | -81.26915 | 24121 ft | 445 kts | 211° |
| 2026-04-21 01:35 | 25.84512 | -81.28259 | 24121 ft | 445 kts | 211° |
| 2026-04-21 01:35 | 25.81740 | -81.29780 | 24120 ft | 445 kts | 211° |
| 2026-04-21 01:35 | 25.78965 | -81.31298 | 24123 ft | 445 kts | 211° |
| 2026-04-21 01:35 | 25.76191 | -81.32811 | 24046 ft | 439 kts | 211° |
| 2026-04-21 01:36 | 25.73504 | -81.34272 | 23827 ft | 421 kts | 211° |
| 2026-04-21 01:36 | 25.70922 | -81.35670 | 23585 ft | 405 kts | 211° |
| 2026-04-21 01:36 | 25.68463 | -81.37008 | 23318 ft | 393 kts | 211° |
| 2026-04-21 01:36 | 25.66312 | -81.38181 | 23088 ft | 387 kts | 211° |
| 2026-04-21 01:37 | 25.63912 | -81.39502 | 22823 ft | 384 kts | 212° |
| 2026-04-21 01:37 | 25.61528 | -81.40820 | 22560 ft | 382 kts | 212° |
| 2026-04-21 01:37 | 25.59148 | -81.42132 | 22305 ft | 381 kts | 211° |
| 2026-04-21 01:37 | 25.56913 | -81.43358 | 22066 ft | 380 kts | 211° |
| 2026-04-21 01:38 | 25.54547 | -81.44649 | 21810 ft | 379 kts | 211° |
| 2026-04-21 01:38 | 25.53065 | -81.45455 | 21653 ft | 378 kts | 211° |
| 2026-04-21 01:38 | 25.50324 | -81.46943 | 21327 ft | 373 kts | 211° |
| 2026-04-21 01:38 | 25.48039 | -81.48188 | 20856 ft | 370 kts | 211° |
| 2026-04-21 01:39 | 25.45734 | -81.49446 | 20370 ft | 368 kts | 211° |
| 2026-04-21 01:39 | 25.43714 | -81.50549 | 19925 ft | 366 kts | 211° |
| 2026-04-21 01:39 | 25.41430 | -81.51793 | 19414 ft | 365 kts | 211° |
| 2026-04-21 01:39 | 25.39152 | -81.53029 | 18899 ft | 364 kts | 210° |
| 2026-04-21 01:40 | 25.36879 | -81.54265 | 18378 ft | 364 kts | 210° |
| 2026-04-21 01:40 | 25.34878 | -81.55356 | 17838 ft | 363 kts | 210° |
| 2026-04-21 01:40 | 25.33376 | -81.56178 | 17411 ft | 365 kts | 210° |
| 2026-04-21 01:40 | 25.31102 | -81.57415 | 16904 ft | 362 kts | 210° |
| 2026-04-21 01:41 | 25.28842 | -81.58635 | 16386 ft | 361 kts | 210° |
| 2026-04-21 01:41 | 25.26598 | -81.59846 | 15889 ft | 359 kts | 210° |
| 2026-04-21 01:41 | 25.23637 | -81.61445 | 15223 ft | 357 kts | 210° |
| 2026-04-21 01:41 | 25.21414 | -81.62650 | 14722 ft | 355 kts | 210° |
| 2026-04-21 01:42 | 25.20174 | -81.63322 | 14448 ft | 355 kts | 210° |
| 2026-04-21 01:42 | 25.17958 | -81.64521 | 13936 ft | 354 kts | 209° |
| 2026-04-21 01:42 | 25.15752 | -81.65714 | 13392 ft | 353 kts | 210° |
| 2026-04-21 01:42 | 25.13584 | -81.66887 | 12878 ft | 350 kts | 210° |
| 2026-04-21 01:43 | 25.11402 | -81.68068 | 12416 ft | 347 kts | 209° |
| 2026-04-21 01:43 | 25.09248 | -81.69240 | 11898 ft | 344 kts | 210° |
| 2026-04-21 01:43 | 25.07118 | -81.70419 | 11422 ft | 341 kts | 210° |
| 2026-04-21 01:43 | 25.05252 | -81.71470 | 11010 ft | 338 kts | 210° |
| 2026-04-21 01:44 | 25.03216 | -81.72633 | 10896 ft | 322 kts | 210° |
| 2026-04-21 01:44 | 25.01270 | -81.73741 | 10743 ft | 309 kts | 210° |
| 2026-04-21 01:44 | 24.99376 | -81.74823 | 10410 ft | 304 kts | 210° |
| 2026-04-21 01:44 | 24.97513 | -81.75901 | 10007 ft | 302 kts | 209° |
| 2026-04-21 01:45 | 24.95667 | -81.76990 | 9538 ft | 300 kts | 210° |
| 2026-04-21 01:45 | 24.93833 | -81.78076 | 9086 ft | 298 kts | 210° |
| 2026-04-21 01:45 | 24.92261 | -81.79014 | 8690 ft | 296 kts | 209° |
| 2026-04-21 01:45 | 24.90455 | -81.80099 | 8251 ft | 293 kts | 210° |
| 2026-04-21 01:46 | 24.88676 | -81.81178 | 7820 ft | 291 kts | 210° |
| 2026-04-21 01:46 | 24.86912 | -81.82257 | 7388 ft | 289 kts | 210° |
| 2026-04-21 01:46 | 24.85163 | -81.83336 | 6952 ft | 287 kts | 210° |
| 2026-04-21 01:46 | 24.83428 | -81.84416 | 6579 ft | 284 kts | 210° |
| 2026-04-21 01:47 | 24.81731 | -81.85481 | 6277 ft | 279 kts | 210° |
| 2026-04-21 01:47 | 24.80250 | -81.86415 | 6008 ft | 274 kts | 210° |
| 2026-04-21 01:47 | 24.78615 | -81.87453 | 5715 ft | 268 kts | 210° |
| 2026-04-21 01:47 | 24.77018 | -81.88474 | 5420 ft | 263 kts | 210° |
| 2026-04-21 01:48 | 24.75449 | -81.89484 | 5127 ft | 259 kts | 210° |
| 2026-04-21 01:48 | 24.73927 | -81.90468 | 4837 ft | 255 kts | 210° |
| 2026-04-21 01:48 | 24.72415 | -81.91454 | 4536 ft | 251 kts | 210° |
| 2026-04-21 01:48 | 24.70845 | -81.92255 | 4235 ft | 248 kts | 196° |
| 2026-04-21 01:49 | 24.69396 | -81.92732 | 3971 ft | 246 kts | 194° |
| 2026-04-21 01:49 | 24.67728 | -81.92905 | 3680 ft | 238 kts | 169° |
| 2026-04-21 01:49 | 24.66109 | -81.92587 | 3395 ft | 236 kts | 164° |
| 2026-04-21 01:49 | 24.64502 | -81.92219 | 3095 ft | 236 kts | 163° |
| 2026-04-21 01:50 | 24.62896 | -81.91854 | 2797 ft | 236 kts | 164° |
| 2026-04-21 01:50 | 24.61299 | -81.91480 | 2530 ft | 233 kts | 163° |
| 2026-04-21 01:50 | 24.59737 | -81.91119 | 2164 ft | 225 kts | 164° |
| 2026-04-21 01:50 | 24.58353 | -81.90783 | 1852 ft | 211 kts | 156° |
| 2026-04-21 01:51 | 24.57084 | -81.90302 | 1636 ft | 194 kts | 148° |
| 2026-04-21 01:51 | 24.56072 | -81.89473 | 1541 ft | 170 kts | 122° |
| 2026-04-21 01:51 | 24.55580 | -81.88422 | 1492 ft | 141 kts | 97° |
| 2026-04-21 01:51 | 24.55499 | -81.87433 | 1494 ft | 124 kts | 82° |
| 2026-04-21 01:52 | 24.55507 | -81.86491 | 1502 ft | 126 kts | 82° |
| 2026-04-21 01:52 | 24.55524 | -81.84575 | 1468 ft | 132 kts | 83° |
| 2026-04-21 01:52 | 24.55531 | -81.83660 | 1305 ft | 127 kts | 83° |
| 2026-04-21 01:53 | 24.55536 | -81.82728 | 1124 ft | 121 kts | 82° |
| 2026-04-21 01:53 | 24.55544 | -81.81817 | 958 ft | 118 kts | 81° |
| 2026-04-21 01:53 | 24.55552 | -81.80907 | 820 ft | 120 kts | 81° |
| 2026-04-21 01:53 | 24.55559 | -81.80000 | 631 ft | 117 kts | 79° |
| 2026-04-21 01:54 | 24.55571 | -81.79078 | 468 ft | 122 kts | 83° |
| 2026-04-21 01:54 | 24.55588 | -81.78151 | 280 ft | 121 kts | 88° |
| 2026-04-21 01:54 | 24.55599 | -81.77330 | 145 ft | 122 kts | 86° |
| 2026-04-21 01:54 | 24.55608 | -81.76410 | 11 ft | 112 kts | 86° |
| 2026-04-21 01:55 | 24.55613 | -81.75811 | 12 ft | 45 kts | 89° |
| 2026-04-21 01:55 | 24.55616 | -81.75511 | 17 ft | 37 kts | 90° |
| 2026-04-21 01:55 | 24.55615 | -81.75305 | 15 ft | 16 kts | 98° |
| 2026-04-21 01:55 | 24.55542 | -81.75259 | 17 ft | 11 kts | 199° |
| 2026-04-21 01:56 | 24.55500 | -81.75324 | 15 ft | 11 kts | 242° |
| 2026-04-21 01:56 | 24.55459 | -81.75359 | 14 ft | 9 kts | 196° |
| 2026-04-21 01:56 | 24.55417 | -81.75362 | 14 ft | 0 kts | 181° |